Terminal Aerodrome Forecast
Issued by NWS

Home | Current Version | Previous Version | Text Only | Print | Product List | Glossary On
Versions: 1 2 3 4 5 6 7 8 9 10 11 12 13 14 15 16 17 18 19
000
FTUS42 KTAE 221743
TAFVLD
TAF
KVLD 221743Z 2218/2318 10010KT 5SM -RA BR BKN020 OVC040
      TEMPO 2218/2222 3SM RA BR OVC015
     FM230400 07005KT P6SM OVC012
     FM230800 06005KT P6SM OVC007
     FM231600 06007KT P6SM SCT008 BKN015=

USA.gov is the U.S. government's official web portal to all federal, state and local government web resources and services.